Garryowen, MT (59031)

11:27 AM MDT on October 21, 2014 (GMT -0600)
RAWS LITTLE BIGHORN MT US | Change Station
CLOSE
Current Station
Personal Weather Station
Location: Crow Agency, MT
Elevation: 3196 ft
Nearby Weather Stations

Elev 3196 ft 45.57 °N, 107.44 °W | Updated 28 minutes ago

Clear
Clear
70 °F
Feels Like 70 °F
N
3
Wind Variable Wind from WSW
Gusts 6.0 mph

Today
High -- | Low -- °F
--% Chance of Precip.
Yesterday
High -- | Low -- °F
Precip. -- in
7:33 AM 6:13 PM
Waning Crescent, 5% visible
Pressure 29.69 in
Visibility 10.0 miles
Clouds Clear
Dew Point 40 °F
Humidity 34%
Rainfall 0.00 in
Snow Depth Not available.
UV 3 out of 12
Pollen 2.30 out of 12
Air Quality Not available.
Flu Activity No Activity
METAR KSHR 211653Z AUTO 01005KT 10SM CLR 22/02 A2973 RMK AO2 SLP052 T02170022 TSNO

More Conditions Fewer Conditions

Pressure 29.69 in
Visibility 10.0 miles
Clouds Clear
Dew Point 40 °F
Humidity 34%
Rainfall 0.00 in
Snow Depth Not available.
UV 3 out of 12
Pollen 2.30 out of 12
Air Quality Not available.
Flu Activity No Activity
METAR KSHR 211653Z AUTO 01005KT 10SM CLR 22/02 A2973 RMK AO2 SLP052 T02170022 TSNO

More Conditions Fewer Conditions

10-Day Weather Forecast

Almanac

Astronomy

Oct. 21, 2014 Rise Set
Actual Time 7:33 AM MDT 6:13 PM MDT
Civil Twilight 7:03 AM MDT 6:43 PM MDT
Nautical Twilight 6:28 AM MDT 7:17 PM MDT
Astronomical Twilight 5:54 AM MDT 7:51 PM MDT
Moon 5:14 AM MDT 5:13 PM MDT
Length of Visible Light 11h 40m
Length of Day
10h 39m
Tomorrow will be 3m 0s shorter.
Waning Crescent, 5% of the Moon is Illuminated
Today
Waning Crescent
Oct 23
New
Oct 30
First Quarter
Nov 6
Full
Nov 14
Last Quarter

Today's Extremes

State Highs State Lows

Community

WunderPhotos

Upload Photos

1,763,726 photos uploaded!

Nearby

Snow Depth

Station Depth Elevation
Burnt Mountain 0 in 5880 ft
Fisher Creek 1 in 9100 ft
Northeast Entrance 0 in 7350 ft
Crystal Lake 0 in 6050 ft
Monument Peak 0 in 8850 ft

Earthquake Activity

City Distance Mag. Time & Date
No recent earthquake activity has been reported nearby.
Minimum magnitude displayed is 2.5.

Coastal Water Temperatures

Place Temperature
No Stations Reporting

Nearby Weather Stations